Time;durP1;ratioP1;P1;durP2;ratioP2;P2;SDS_P1;SDS_P2;PMS_P1;PMS_P2;Temp;Humidity;BMP_temperature;BMP_pressure;BME280_temperature;BME280_humidity;BME280_pressure;Samples;Min_cycle;Max_cycle;Signal;HPM_P1;HPM_P2
2023/06/26 00:00:29;;;;;;;18.03;16.53;;;;;;;25.52;54.94;94862.97;6162289;28;109344;-60
2023/06/26 00:03:33;;;;;;;19.20;17.50;;;;;;;25.52;54.37;94865.66;6151831;28;109390;-60
2023/06/26 00:06:38;;;;;;;19.47;17.70;;;;;;;25.52;54.19;94860.28;6160828;28;109061;-60
2023/06/26 00:09:42;;;;;;;20.17;18.47;;;;;;;25.51;54.25;94861.41;6144467;28;111426;-61
2023/06/26 00:12:45;;;;;;;19.57;17.90;;;;;;;25.51;54.20;94867.53;6162667;28;109007;-60
2023/06/26 00:15:49;;;;;;;18.47;16.93;;;;;;;25.50;54.59;94862.53;6156701;28;109283;-59
2023/06/26 00:18:52;;;;;;;19.53;17.93;;;;;;;25.49;54.40;94859.06;6159736;28;109109;-60
2023/06/26 00:21:55;;;;;;;20.27;18.57;;;;;;;25.49;54.52;94852.91;6152743;28;109479;-59
2023/06/26 00:24:59;;;;;;;19.40;17.40;;;;;;;25.51;54.56;94858.72;6143108;28;109122;-59
2023/06/26 00:28:02;;;;;;;19.13;17.43;;;;;;;25.50;54.23;94852.59;6146560;28;109033;-60
2023/06/26 00:31:05;;;;;;;20.00;18.20;;;;;;;25.50;54.58;94857.94;6153262;28;110009;-60
2023/06/26 00:34:09;;;;;;;18.37;16.83;;;;;;;25.49;54.32;94850.25;6154371;28;110417;-60
2023/06/26 00:37:12;;;;;;;18.70;17.20;;;;;;;25.50;54.54;94860.63;6164825;28;109245;-60
2023/06/26 00:40:16;;;;;;;19.17;17.50;;;;;;;25.50;54.35;94857.94;6156982;28;109153;-61
2023/06/26 00:43:19;;;;;;;18.80;17.20;;;;;;;25.49;54.48;94848.34;6148128;28;109004;-59
2023/06/26 00:46:23;;;;;;;17.00;15.70;;;;;;;25.50;54.15;94849.13;6140728;28;109020;-59
2023/06/26 00:49:27;;;;;;;18.60;16.87;;;;;;;25.49;54.32;94850.25;6148244;28;109136;-59
2023/06/26 00:52:31;;;;;;;17.00;15.60;;;;;;;25.49;54.01;94848.34;6149465;28;109085;-60
2023/06/26 00:55:36;;;;;;;16.30;15.00;;;;;;;25.49;54.23;94840.31;6133727;28;110271;-60
2023/06/26 00:58:39;;;;;;;17.60;16.10;;;;;;;25.48;54.08;94841.41;6157737;28;109090;-62
2023/06/26 01:01:42;;;;;;;16.90;15.20;;;;;;;25.49;53.84;94842.97;6161805;28;109693;-59
2023/06/26 01:04:46;;;;;;;18.03;16.43;;;;;;;25.47;54.19;94839.84;6153468;28;110296;-60
2023/06/26 01:07:50;;;;;;;16.33;14.93;;;;;;;25.47;53.92;94834.50;6163596;28;109243;-59
2023/06/26 01:10:56;;;;;;;14.83;13.67;;;;;;;25.48;54.02;94827.25;6162359;28;108982;-60
2023/06/26 01:14:02;;;;;;;15.03;13.93;;;;;;;25.48;53.96;94828.03;6162210;28;109057;-63
2023/06/26 01:17:06;;;;;;;15.03;13.90;;;;;;;25.48;54.27;94825.34;6129821;28;108841;-63
2023/06/26 01:20:10;;;;;;;15.63;14.33;;;;;;;25.49;54.15;94823.44;6147862;28;109413;-62
2023/06/26 01:23:18;;;;;;;15.10;13.90;;;;;;;25.47;54.45;94828.34;6163017;28;110995;-62
2023/06/26 01:26:24;;;;;;;14.60;13.40;;;;;;;25.48;53.55;94825.34;6153504;28;109043;-62
2023/06/26 01:29:31;;;;;;;14.43;13.20;;;;;;;25.47;53.59;94823.78;6145892;28;110027;-63
2023/06/26 01:32:34;;;;;;;14.10;12.70;;;;;;;25.46;53.73;94819.53;6162653;28;108991;-63
2023/06/26 01:35:38;;;;;;;13.67;12.33;;;;;;;25.47;53.55;94823.00;6153915;28;108989;-63
2023/06/26 01:38:41;;;;;;;15.57;12.40;;;;;;;25.45;53.47;94815.28;6146363;28;109679;-62
2023/06/26 01:41:46;;;;;;;12.67;11.50;;;;;;;25.46;53.52;94811.50;6155277;28;108907;-63
2023/06/26 01:44:52;;;;;;;12.03;11.10;;;;;;;25.45;53.41;94815.28;6163449;28;109037;-63
2023/06/26 01:47:59;;;;;;;11.50;10.70;;;;;;;25.44;53.46;94811.06;6162991;28;109347;-62
2023/06/26 01:51:03;;;;;;;12.70;11.70;;;;;;;25.45;53.26;94817.19;6140624;28;109456;-63
2023/06/26 01:54:11;;;;;;;11.90;11.00;;;;;;;25.43;53.43;94811.38;6154638;28;109798;-63
2023/06/26 01:57:19;;;;;;;11.60;10.63;;;;;;;25.43;53.67;94806.81;6157008;28;110168;-63
2023/06/26 02:00:24;;;;;;;12.20;11.20;;;;;;;25.42;53.59;94807.16;6161912;28;108956;-62
2023/06/26 02:03:27;;;;;;;13.00;11.90;;;;;;;25.40;53.53;94807.47;6135953;28;110036;-63
2023/06/26 02:06:30;;;;;;;11.73;10.83;;;;;;;25.42;53.68;94805.25;6144673;28;109094;-63
2023/06/26 02:09:33;;;;;;;12.87;11.67;;;;;;;25.42;53.57;94801.78;6153603;28;110249;-63
2023/06/26 02:12:39;;;;;;;11.80;10.90;;;;;;;25.40;53.48;94804.03;6143166;28;109121;-62
2023/06/26 02:15:42;;;;;;;11.60;10.63;;;;;;;25.41;53.38;94806.38;6140428;28;109143;-62
2023/06/26 02:18:45;;;;;;;11.73;10.67;;;;;;;25.42;53.18;94801.78;6146385;28;109165;-63
2023/06/26 02:21:49;;;;;;;11.50;10.60;;;;;;;25.40;53.11;94807.47;6161513;28;109922;-63
2023/06/26 02:24:52;;;;;;;11.50;10.50;;;;;;;25.38;53.40;94805.13;6140438;28;110173;-64
2023/06/26 02:27:57;;;;;;;11.10;10.20;;;;;;;25.40;53.65;94807.47;6150440;28;108828;-64
2023/06/26 02:31:00;;;;;;;11.63;10.83;;;;;;;25.40;53.46;94812.84;6161418;28;109006;-64
2023/06/26 02:34:03;;;;;;;11.03;10.03;;;;;;;25.39;53.50;94808.59;6145710;28;109103;-63
2023/06/26 02:37:07;;;;;;;11.53;10.53;;;;;;;25.38;53.65;94807.03;6138060;28;110284;-64
2023/06/26 02:40:11;;;;;;;12.27;11.20;;;;;;;25.40;53.14;94806.69;6159653;28;109068;-64
2023/06/26 02:43:16;;;;;;;11.87;10.87;;;;;;;25.40;53.22;94807.47;6162568;28;109262;-65
2023/06/26 02:46:19;;;;;;;12.40;11.20;;;;;;;25.39;53.63;94803.25;6149017;28;110326;-64
2023/06/26 02:49:22;;;;;;;11.87;10.97;;;;;;;25.40;53.27;94809.38;6146752;28;109018;-64
2023/06/26 02:52:25;;;;;;;10.77;9.97;;;;;;;25.39;53.41;94811.28;6156456;28;110114;-65
2023/06/26 02:55:28;;;;;;;13.37;12.17;;;;;;;25.39;53.28;94816.63;6154134;28;108928;-65
2023/06/26 02:58:33;;;;;;;14.47;12.90;;;;;;;25.38;53.19;94813.19;6147637;28;109464;-63
2023/06/26 03:01:36;;;;;;;12.13;11.23;;;;;;;25.39;53.53;94813.97;6160577;28;110034;-65
2023/06/26 03:04:39;;;;;;;12.40;11.40;;;;;;;25.40;53.53;94823.56;6154975;28;110170;-64
2023/06/26 03:07:43;;;;;;;12.70;11.60;;;;;;;25.38;53.64;94817.75;6161770;28;109498;-65
2023/06/26 03:10:46;;;;;;;12.97;11.30;;;;;;;25.40;53.83;94812.06;6150017;28;109033;-63
2023/06/26 03:13:51;;;;;;;15.43;13.93;;;;;;;25.40;53.71;94815.50;6152146;28;110168;-65
2023/06/26 03:16:57;;;;;;;32.60;29.63;;;;;;;25.35;53.72;94818.38;6142030;28;109230;-65
2023/06/26 03:20:01;;;;;;;38.30;34.07;;;;;;;25.34;54.63;94814.91;6149019;28;110062;-63
2023/06/26 03:23:04;;;;;;;31.60;28.80;;;;;;;25.40;53.29;94818.19;6139794;28;109258;-64
2023/06/26 03:26:07;;;;;;;30.37;27.27;;;;;;;25.41;53.39;94813.63;6139704;28;108991;-65
2023/06/26 03:29:11;;;;;;;26.90;24.53;;;;;;;25.41;53.70;94819.75;6161707;28;108734;-63
2023/06/26 03:32:15;;;;;;;27.37;24.43;;;;;;;25.39;53.91;94813.97;6153298;28;109191;-62
2023/06/26 03:35:18;;;;;;;24.13;22.10;;;;;;;25.42;54.00;94820.53;6151110;28;108999;-60
2023/06/26 03:38:22;;;;;;;24.70;22.60;;;;;;;25.42;53.97;94825.91;6161828;28;110147;-60
2023/06/26 03:41:25;;;;;;;22.20;20.20;;;;;;;25.42;53.98;94823.22;6159097;28;110344;-60
2023/06/26 03:44:29;;;;;;;21.47;19.47;;;;;;;25.40;53.89;94818.19;6143276;28;109005;-60
2023/06/26 03:47:33;;;;;;;21.87;19.87;;;;;;;25.41;53.73;94814.41;6158354;28;110006;-62
2023/06/26 03:50:36;;;;;;;19.10;17.40;;;;;;;25.41;53.62;94818.97;6159739;28;109012;-59
2023/06/26 03:53:39;;;;;;;21.43;19.30;;;;;;;25.40;53.55;94820.88;6140222;28;109998;-60
2023/06/26 03:56:42;;;;;;;18.47;16.87;;;;;;;25.37;53.37;94816.97;6143039;28;109947;-60
2023/06/26 03:59:47;;;;;;;21.40;19.60;;;;;;;25.39;53.04;94819.31;6160768;28;109239;-59
2023/06/26 04:02:51;;;;;;;19.07;17.60;;;;;;;25.38;54.24;94812.41;6159919;28;110012;-59
2023/06/26 04:05:54;;;;;;;22.30;20.03;;;;;;;25.41;53.84;94814.41;6154905;28;108762;-60
2023/06/26 04:08:57;;;;;;;22.20;20.03;;;;;;;25.43;53.95;94812.16;6155605;28;110025;-59
2023/06/26 04:12:00;;;;;;;25.30;18.77;;;;;;;25.46;54.18;94806.13;6159818;28;109163;-61
2023/06/26 04:15:06;;;;;;;22.50;20.10;;;;;;;25.55;53.84;94808.72;6149995;28;110100;-59
2023/06/26 04:18:09;;;;;;;20.03;17.70;;;;;;;25.63;54.04;94810.50;6133535;28;110168;-61
2023/06/26 04:21:14;;;;;;;19.53;17.73;;;;;;;25.66;54.03;94810.63;6157369;28;109357;-59
2023/06/26 04:24:17;;;;;;;18.17;16.37;;;;;;;25.43;52.49;94812.16;6161232;28;108985;-59
2023/06/26 04:27:20;;;;;;;16.27;15.07;;;;;;;25.37;52.90;94819.66;6161284;28;108974;-60
2023/06/26 04:30:24;;;;;;;17.67;16.20;;;;;;;25.40;52.84;94828.13;6150850;28;109005;-59
2023/06/26 04:33:27;;;;;;;17.37;15.93;;;;;;;25.41;52.94;94821.66;6161348;28;109247;-61
2023/06/26 04:36:33;;;;;;;17.10;15.70;;;;;;;25.41;52.78;94824.34;6149556;28;109042;-61
2023/06/26 04:39:38;;;;;;;18.10;16.40;;;;;;;25.41;52.59;94827.78;6140756;28;109858;-59
2023/06/26 04:42:41;;;;;;;17.60;16.20;;;;;;;25.41;52.67;94832.38;6131513;28;108937;-59
2023/06/26 04:45:45;;;;;;;17.70;16.30;;;;;;;25.40;52.82;94828.91;6140721;28;108971;-64
2023/06/26 04:48:49;;;;;;;16.40;15.10;;;;;;;25.38;52.71;94831.16;6140917;28;108822;-63
2023/06/26 04:51:53;;;;;;;17.27;15.97;;;;;;;25.38;52.62;94826.56;6131210;28;110010;-62
2023/06/26 04:54:56;;;;;;;17.43;16.17;;;;;;;25.41;52.78;94835.84;6140184;28;109973;-63
2023/06/26 04:57:59;;;;;;;17.03;15.83;;;;;;;25.37;52.48;94833.03;6140370;28;109007;-63
2023/06/26 05:01:06;;;;;;;18.17;16.73;;;;;;;25.29;52.80;94833.88;6140383;28;109041;-64
2023/06/26 05:04:10;;;;;;;15.67;14.57;;;;;;;25.32;53.10;94841.25;6129427;28;110121;-64
2023/06/26 05:07:13;;;;;;;15.80;14.53;;;;;;;25.33;52.66;94833.97;6158491;28;109347;-63
2023/06/26 05:10:17;;;;;;;16.70;15.50;;;;;;;25.36;53.02;94844.84;6164216;28;109075;-65
2023/06/26 05:13:20;;;;;;;17.40;15.40;;;;;;;25.34;52.77;94841.69;6164164;28;108999;-63
2023/06/26 05:16:24;;;;;;;16.63;15.13;;;;;;;25.35;52.57;94850.53;6153879;28;109384;-64
2023/06/26 05:19:27;;;;;;;15.70;14.50;;;;;;;25.34;52.83;94840.91;6164503;28;110042;-63
2023/06/26 05:22:31;;;;;;;16.77;15.27;;;;;;;25.35;52.79;94848.63;6163742;28;109319;-65
2023/06/26 05:25:35;;;;;;;16.20;15.00;;;;;;;25.36;52.92;94849.41;6159630;28;109433;-63
2023/06/26 05:28:38;;;;;;;17.10;15.67;;;;;;;25.37;52.64;94856.34;6158751;28;108999;-64
2023/06/26 05:31:45;;;;;;;16.10;14.90;;;;;;;25.36;52.90;94854.78;6150090;28;109595;-64
2023/06/26 05:34:50;;;;;;;17.20;15.90;;;;;;;25.36;52.82;94852.09;6139605;28;109077;-64
2023/06/26 05:37:53;;;;;;;16.10;14.80;;;;;;;25.34;53.08;94852.41;6152696;28;109245;-64
2023/06/26 05:40:57;;;;;;;16.60;15.30;;;;;;;25.35;52.85;94853.22;6164019;28;108985;-64
2023/06/26 05:44:00;;;;;;;17.90;16.20;;;;;;;25.36;52.71;94847.53;6163883;28;109997;-64
2023/06/26 05:47:05;;;;;;;17.60;16.30;;;;;;;25.36;52.84;94850.19;6163826;28;110049;-63
2023/06/26 05:50:10;;;;;;;18.00;16.70;;;;;;;25.39;52.93;94856.81;6152581;28;109610;-64
2023/06/26 05:53:13;;;;;;;17.50;16.00;;;;;;;25.38;52.86;94849.91;6163968;28;109326;-63
2023/06/26 05:56:18;;;;;;;17.33;16.03;;;;;;;25.38;52.90;94858.72;6163396;28;109299;-63
2023/06/26 05:59:23;;;;;;;17.23;16.03;;;;;;;25.40;52.86;94861.06;6159909;28;109543;-66
2023/06/26 06:02:27;;;;;;;16.60;15.40;;;;;;;25.41;52.75;94851.13;6157416;28;109163;-67
2023/06/26 06:05:33;;;;;;;16.97;15.60;;;;;;;25.39;52.82;94859.50;6163595;28;109076;-64
2023/06/26 06:08:36;;;;;;;16.57;15.37;;;;;;;25.40;52.76;94866.41;6163666;28;113648;-64
2023/06/26 06:11:39;;;;;;;17.13;15.80;;;;;;;25.41;53.03;94862.63;6153160;28;109174;-63
2023/06/26 06:14:42;;;;;;;16.13;15.00;;;;;;;25.41;52.95;94859.16;6163085;28;109138;-63
2023/06/26 06:17:46;;;;;;;16.43;15.13;;;;;;;25.42;52.69;94861.50;6163511;28;109203;-64
2023/06/26 06:20:50;;;;;;;17.13;15.93;;;;;;;25.48;52.96;94860.16;6162905;28;109047;-63
2023/06/26 06:23:53;;;;;;;17.77;16.17;;;;;;;25.50;52.77;94849.91;6152464;28;109058;-63
2023/06/26 06:26:56;;;;;;;16.40;15.10;;;;;;;25.52;52.75;94852.25;6163413;28;110244;-64
2023/06/26 06:29:59;;;;;;;16.73;15.53;;;;;;;25.56;52.36;94853.94;6163182;28;110056;-64
2023/06/26 06:33:03;;;;;;;17.03;15.73;;;;;;;25.64;52.49;94855.75;6163094;28;111295;-64
2023/06/26 06:36:07;;;;;;;15.67;14.53;;;;;;;25.66;51.72;94848.16;6153197;28;109090;-63
2023/06/26 06:39:10;;;;;;;16.33;15.03;;;;;;;25.65;52.22;94854.63;6163045;28;109513;-64
2023/06/26 06:42:13;;;;;;;16.87;15.50;;;;;;;25.65;52.58;94856.53;6162694;28;109091;-64
2023/06/26 06:45:16;;;;;;;16.23;15.13;;;;;;;25.68;52.44;94848.59;6157707;28;109008;-65
2023/06/26 06:48:20;;;;;;;16.13;14.70;;;;;;;25.80;52.04;94841.69;6158035;28;109163;-63
2023/06/26 06:51:24;;;;;;;15.43;14.27;;;;;;;25.85;51.95;94839.56;6162660;28;108981;-64
2023/06/26 06:54:28;;;;;;;15.57;14.47;;;;;;;25.92;51.98;94839.03;6162912;28;109154;-64
2023/06/26 06:57:35;;;;;;;16.43;15.03;;;;;;;25.95;51.62;94841.81;6152145;28;110114;-63
2023/06/26 07:00:38;;;;;;;16.60;15.23;;;;;;;25.98;51.54;94837.66;6162178;28;110790;-64
2023/06/26 07:03:43;;;;;;;15.93;14.73;;;;;;;25.97;52.08;94839.56;6162514;28;108965;-60
2023/06/26 07:06:47;;;;;;;15.60;14.40;;;;;;;25.90;51.97;94835.91;6162487;28;109152;-60
2023/06/26 07:09:50;;;;;;;16.27;15.10;;;;;;;25.94;51.72;94848.28;6152292;28;110732;-60
2023/06/26 07:12:53;;;;;;;16.20;14.90;;;;;;;25.96;51.86;94839.91;6161901;28;111842;-60
2023/06/26 07:15:56;;;;;;;15.47;14.27;;;;;;;25.94;51.89;94837.56;6162544;28;110444;-60
2023/06/26 07:19:00;;;;;;;15.67;14.47;;;;;;;25.95;51.90;94835.66;6157885;28;109353;-61
2023/06/26 07:22:04;;;;;;;14.63;13.57;;;;;;;25.93;51.83;94841.34;6156836;28;108921;-60
2023/06/26 07:25:09;;;;;;;15.77;14.50;;;;;;;25.91;51.87;94842.81;6162051;28;109110;-63
2023/06/26 07:28:13;;;;;;;14.80;13.60;;;;;;;25.95;51.70;94835.66;6162409;28;110023;-60
2023/06/26 07:31:17;;;;;;;14.73;13.43;;;;;;;25.98;51.84;94843.03;6151594;28;109292;-60
2023/06/26 07:34:22;;;;;;;15.00;13.90;;;;;;;26.02;51.21;94827.84;6162266;28;110366;-60
2023/06/26 07:37:25;;;;;;;14.57;13.37;;;;;;;26.06;51.39;94838.72;6162211;28;108868;-59
2023/06/26 07:40:28;;;;;;;14.67;13.57;;;;;;;26.01;51.53;94839.69;6162137;28;110571;-60
2023/06/26 07:43:32;;;;;;;14.17;13.07;;;;;;;26.05;50.88;94837.94;6152126;28;109000;-60
2023/06/26 07:46:35;;;;;;;13.23;12.03;;;;;;;26.11;50.83;94833.91;6162045;28;108906;-60
2023/06/26 07:49:40;;;;;;;13.83;12.73;;;;;;;26.14;51.27;94835.91;6161577;28;108988;-60
2023/06/26 07:52:43;;;;;;;14.17;13.07;;;;;;;26.20;51.14;94839.91;6162038;28;109021;-61
2023/06/26 07:55:46;;;;;;;13.47;12.47;;;;;;;26.18;50.90;94836.78;6153013;28;109687;-60
2023/06/26 07:58:49;;;;;;;12.70;11.70;;;;;;;26.15;51.02;94840.16;6161831;28;108994;-60
2023/06/26 08:01:54;;;;;;;12.90;11.90;;;;;;;26.12;50.95;94842.72;6161689;28;109068;-60
2023/06/26 08:04:59;;;;;;;12.77;11.87;;;;;;;26.12;51.10;94843.50;6154754;28;108679;-63
2023/06/26 08:08:03;;;;;;;11.80;11.00;;;;;;;26.07;50.94;94838.38;6159563;28;109992;-60
2023/06/26 08:11:06;;;;;;;14.60;13.30;;;;;;;26.14;50.70;94835.91;6162197;28;108999;-60
2023/06/26 08:14:09;;;;;;;12.23;11.33;;;;;;;26.21;50.94;94828.09;6166009;28;109719;-60
2023/06/26 08:17:12;;;;;;;12.20;11.30;;;;;;;26.26;50.53;94829.75;6155916;28;110501;-64
2023/06/26 08:20:17;;;;;;;12.33;11.40;;;;;;;26.31;51.12;94829.50;6164471;28;109293;-65
2023/06/26 08:23:21;;;;;;;11.00;10.20;;;;;;;26.32;51.04;94828.38;6165652;28;108966;-63
2023/06/26 08:26:28;;;;;;;11.80;11.00;;;;;;;26.28;50.48;94824.81;6165888;28;109045;-64
2023/06/26 08:29:31;;;;;;;12.40;11.47;;;;;;;26.26;50.58;94833.22;6155595;28;110428;-64
2023/06/26 08:32:34;;;;;;;26.67;24.67;;;;;;;26.29;50.24;94826.38;6165309;28;109015;-64
2023/06/26 08:35:39;;;;;;;40.97;38.03;;;;;;;26.27;50.35;94829.41;6165141;28;108890;-64
2023/06/26 08:38:42;;;;;;;38.83;36.03;;;;;;;26.30;50.67;94833.31;6160217;28;109166;-63
2023/06/26 08:41:45;;;;;;;39.30;36.40;;;;;;;26.27;50.93;94834.78;6159994;28;108991;-64
2023/06/26 08:44:49;;;;;;;34.63;32.03;;;;;;;26.18;50.85;94831.41;6165272;28;110023;-64
2023/06/26 08:48:08;;;;;;;31.07;28.77;;;;;;;26.17;50.96;94835.22;6164206;28;111024;-64
2023/06/26 08:51:14;;;;;;;28.60;26.40;;;;;;;26.13;50.41;94830.88;6154910;28;109102;-64
2023/06/26 08:54:23;;;;;;;26.93;24.93;;;;;;;26.08;51.13;94834.56;6165256;28;110080;-65
2023/06/26 08:57:27;;;;;;;23.53;21.63;;;;;;;26.05;51.06;94829.88;6165033;28;109343;-64
2023/06/26 09:00:31;;;;;;;24.93;22.93;;;;;;;26.08;51.07;94831.13;6164868;28;109129;-63
2023/06/26 09:03:36;;;;;;;22.50;20.80;;;;;;;26.15;50.46;94828.63;6154118;28;110083;-63
2023/06/26 09:06:41;;;;;;;22.13;20.43;;;;;;;26.20;50.36;94823.81;6164804;28;110170;-64
2023/06/26 09:09:44;;;;;;;20.07;18.57;;;;;;;26.26;50.21;94824.38;6164707;28;110078;-67
2023/06/26 09:12:48;;;;;;;18.60;17.23;;;;;;;26.22;50.93;94826.97;6159902;28;109187;-65
2023/06/26 09:15:55;;;;;;;17.73;16.43;;;;;;;26.21;50.66;94825.41;6158760;28;109019;-63
2023/06/26 09:18:58;;;;;;;16.10;14.90;;;;;;;26.19;50.30;94826.84;6164685;28;110065;-64
2023/06/26 09:22:03;;;;;;;15.83;14.30;;;;;;;26.24;50.51;94823.94;6164150;28;109995;-64
2023/06/26 09:25:07;;;;;;;14.53;13.43;;;;;;;26.25;50.60;94823.59;6153786;28;109406;-59
2023/06/26 09:28:11;;;;;;;12.93;11.90;;;;;;;26.22;50.39;94816.25;6164506;28;109951;-61
2023/06/26 09:31:14;;;;;;;13.23;12.27;;;;;;;26.22;50.54;94807.41;6164286;28;109122;-60
2023/06/26 09:34:33;;;;;;;13.10;12.00;;;;;;;26.23;50.41;94817.81;6164119;28;109067;-60
2023/06/26 09:37:39;;;;;;;12.60;11.53;;;;;;;26.24;50.36;94813.22;6154445;28;109852;-60
2023/06/26 09:40:42;;;;;;;11.87;11.03;;;;;;;26.23;50.89;94825.84;6163808;28;109016;-59
2023/06/26 09:43:49;;;;;;;11.10;10.10;;;;;;;26.24;50.50;94822.03;6163934;28;109426;-59
2023/06/26 09:46:53;;;;;;;11.83;10.87;;;;;;;26.23;50.39;94812.44;6159051;28;109031;-60
2023/06/26 09:49:56;;;;;;;11.33;10.17;;;;;;;26.18;50.40;94814.53;6158507;28;109319;-60
2023/06/26 09:53:08;;;;;;;10.83;10.03;;;;;;;26.15;50.42;94813.31;6163959;28;108649;-59
2023/06/26 09:56:17;;;;;;;11.07;10.20;;;;;;;26.12;50.95;94821.28;6163720;28;109017;-60
2023/06/26 09:59:21;;;;;;;10.50;9.60;;;;;;;26.12;50.57;94823.94;6154627;28;109367;-60
2023/06/26 10:02:24;;;;;;;9.43;8.73;;;;;;;26.10;50.56;94829.66;6163479;28;109174;-69
2023/06/26 10:05:28;;;;;;;9.80;9.00;;;;;;;26.07;50.35;94827.66;6163991;28;109043;-60
2023/06/26 10:08:35;;;;;;;9.50;8.80;;;;;;;26.04;51.21;94825.63;6163914;28;108819;-60
2023/06/26 10:11:47;;;;;;;9.30;8.60;;;;;;;26.03;50.93;94821.38;6153212;28;109878;-60
2023/06/26 10:14:51;;;;;;;9.10;8.30;;;;;;;26.03;51.02;94824.06;6163611;28;109012;-60
2023/06/26 10:17:57;;;;;;;9.30;8.47;;;;;;;26.02;51.08;94822.50;6163741;28;109374;-60
2023/06/26 10:21:03;;;;;;;9.70;9.00;;;;;;;26.02;51.03;94821.72;6158668;28;109039;-60
2023/06/26 10:24:09;;;;;;;8.90;8.10;;;;;;;26.02;50.68;94813.66;6159119;28;109784;-60
2023/06/26 10:27:19;;;;;;;8.73;8.00;;;;;;;26.01;50.44;94812.09;6163219;28;109423;-60
2023/06/26 10:30:27;;;;;;;8.90;8.13;;;;;;;26.04;50.59;94814.88;6163407;28;109062;-60
2023/06/26 10:33:31;;;;;;;9.37;8.60;;;;;;;26.05;50.74;94813.81;6152745;28;110021;-62
2023/06/26 10:36:36;;;;;;;8.00;7.37;;;;;;;26.04;50.35;94824.84;6163150;28;109181;-65
2023/06/26 10:40:00;;;;;;;8.30;7.50;;;;;;;26.02;50.82;94833.22;6163306;28;108980;-64
2023/06/26 10:43:08;;;;;;;9.00;8.30;;;;;;;26.01;50.06;94826.28;6162997;28;109493;-64
2023/06/26 10:46:11;;;;;;;8.50;7.57;;;;;;;26.00;50.79;94822.06;6153985;28;110012;-64
2023/06/26 10:49:14;;;;;;;8.47;7.67;;;;;;;25.96;51.12;94813.88;6162726;28;109141;-65
2023/06/26 10:52:17;;;;;;;9.17;8.27;;;;;;;25.98;50.99;94813.53;6163474;28;111578;-64
2023/06/26 10:55:28;;;;;;;8.00;7.30;;;;;;;25.93;50.96;94808.41;6156054;28;109155;-63
2023/06/26 10:58:33;;;;;;;8.17;7.37;;;;;;;25.92;50.87;94810.31;6162249;28;109473;-64
2023/06/26 11:01:42;;;;;;;8.00;7.40;;;;;;;25.90;51.44;94806.41;6162990;28;110209;-65
2023/06/26 11:04:47;;;;;;;8.30;7.60;;;;;;;25.89;51.29;94799.47;6162808;28;109512;-65
2023/06/26 11:08:04;;;;;;;8.57;7.80;;;;;;;25.88;51.33;94801.38;6152772;28;109583;-65
2023/06/26 11:11:09;;;;;;;8.17;7.47;;;;;;;25.89;51.42;94802.16;6162459;28;108967;-64
2023/06/26 11:14:12;;;;;;;8.23;7.53;;;;;;;25.87;51.74;94805.16;6162791;28;108904;-64
2023/06/26 11:17:16;;;;;;;8.40;7.70;;;;;;;25.87;51.49;94804.38;6163048;28;112085;-65
2023/06/26 11:20:19;;;;;;;8.23;7.53;;;;;;;25.86;51.46;94795.53;6151311;28;109429;-66
2023/06/26 11:23:26;;;;;;;8.60;7.90;;;;;;;25.87;51.80;94799.00;6162969;28;109315;-65
2023/06/26 11:26:31;;;;;;;8.30;7.50;;;;;;;25.87;51.50;94794.41;6162622;28;108962;-66
2023/06/26 11:29:34;;;;;;;8.30;7.70;;;;;;;25.87;51.71;94791.75;6152999;28;110255;-63
2023/06/26 11:32:37;;;;;;;8.40;7.80;;;;;;;25.88;51.71;94781.81;6161576;28;109268;-66
2023/06/26 11:35:41;;;;;;;8.17;7.43;;;;;;;25.88;51.19;94782.59;6162259;28;109271;-65
2023/06/26 11:38:44;;;;;;;8.00;7.30;;;;;;;25.88;51.59;94784.50;6161965;28;109135;-65
2023/06/26 11:41:49;;;;;;;8.33;7.57;;;;;;;25.90;51.29;94784.94;6152998;28;109413;-65
2023/06/26 11:44:54;;;;;;;7.80;7.20;;;;;;;25.92;51.25;94780.81;6162925;28;109118;-65
2023/06/26 11:47:58;;;;;;;8.70;8.00;;;;;;;25.93;51.55;94785.06;6166783;28;109340;-63
2023/06/26 11:51:05;;;;;;;7.57;6.83;;;;;;;25.95;50.82;94782.81;6166195;28;109140;-63
2023/06/26 11:54:08;;;;;;;7.90;7.30;;;;;;;25.98;50.66;94787.50;6156288;28;110004;-65
2023/06/26 11:57:15;;;;;;;7.50;6.90;;;;;;;25.99;50.73;94785.59;6166385;28;109011;-64
2023/06/26 12:00:18;;;;;;;7.83;7.23;;;;;;;26.01;51.17;94786.06;6166591;28;108760;-64
2023/06/26 12:03:21;;;;;;;7.73;7.13;;;;;;;26.03;50.71;94786.50;6160704;28;110267;-66
2023/06/26 12:06:25;;;;;;;8.30;7.60;;;;;;;26.06;50.61;94785.09;6161184;28;109365;-66
2023/06/26 12:09:29;;;;;;;7.10;6.60;;;;;;;26.03;50.69;94777.69;6165950;28;108952;-62
2023/06/26 12:12:35;;;;;;;7.77;7.17;;;;;;;26.04;50.30;94787.28;6165555;28;109006;-64
2023/06/26 12:15:38;;;;;;;6.77;6.27;;;;;;;26.05;50.13;94778.94;6155280;28;109035;-64
2023/06/26 12:18:41;;;;;;;7.50;6.87;;;;;;;26.06;50.34;94772.44;6165876;28;109288;-64
2023/06/26 12:21:52;;;;;;;7.37;6.87;;;;;;;26.04;50.17;94774.66;6165703;28;109378;-65
2023/06/26 12:24:57;;;;;;;7.40;6.80;;;;;;;26.08;50.48;94778.25;6166220;28;110037;-63
2023/06/26 12:28:02;;;;;;;7.63;7.03;;;;;;;26.06;50.20;94779.72;6156042;28;110351;-64
2023/06/26 12:31:15;;;;;;;7.40;6.80;;;;;;;26.05;49.95;94776.25;6165897;28;109437;-63
2023/06/26 12:34:21;;;;;;;7.07;6.47;;;;;;;26.05;49.82;94772.78;6166022;28;110096;-66
2023/06/26 12:37:24;;;;;;;8.20;7.50;;;;;;;26.04;50.32;94781.94;6160634;28;110018;-64
2023/06/26 12:40:27;;;;;;;7.43;6.93;;;;;;;26.05;50.12;94778.94;6160513;28;109200;-65
2023/06/26 12:43:32;;;;;;;7.40;6.77;;;;;;;26.04;50.38;94768.53;6165831;28;109840;-65
2023/06/26 12:46:36;;;;;;;7.20;6.70;;;;;;;26.03;49.91;94765.06;6165242;28;109037;-65
2023/06/26 12:49:40;;;;;;;8.23;7.53;;;;;;;26.07;49.80;94771.34;6155016;28;109234;-68
2023/06/26 12:52:43;;;;;;;7.80;7.00;;;;;;;26.09;49.79;94766.41;6164973;28;109104;-69
2023/06/26 12:55:46;;;;;;;8.10;7.40;;;;;;;26.12;49.37;94773.00;6165667;28;109312;-70
2023/06/26 12:58:50;;;;;;;7.70;7.00;;;;;;;26.12;49.61;94763.03;6164716;28;109998;-57
2023/06/26 13:01:54;;;;;;;8.83;7.37;;;;;;;26.15;49.47;94769.63;6153848;28;109000;-59
2023/06/26 13:04:57;;;;;;;8.60;7.83;;;;;;;26.10;49.70;94770.66;6164994;28;109019;-59
2023/06/26 13:08:00;;;;;;;8.10;7.30;;;;;;;26.14;49.52;94771.53;6165123;28;110015;-59
2023/06/26 13:11:03;;;;;;;6.97;6.47;;;;;;;26.11;50.06;94774.91;6164420;28;109247;-59
2023/06/26 13:14:08;;;;;;;8.07;7.37;;;;;;;26.07;49.84;94767.88;6155596;28;109029;-60
2023/06/26 13:17:13;;;;;;;7.90;7.30;;;;;;;26.05;49.98;94778.16;6164909;28;109335;-59
2023/06/26 13:20:16;;;;;;;7.87;7.00;;;;;;;26.04;49.96;94777.34;6164723;28;109019;-59
2023/06/26 13:23:20;;;;;;;7.83;7.23;;;;;;;26.02;50.12;94776.13;6155940;28;110237;-59
2023/06/26 13:26:23;;;;;;;7.80;7.10;;;;;;;26.01;50.21;94785.28;6164237;28;109731;-59
2023/06/26 13:29:40;;;;;;;8.00;7.40;;;;;;;26.00;49.87;94784.50;6164529;28;109078;-59
2023/06/26 13:32:44;;;;;;;7.70;7.00;;;;;;;25.97;49.76;94791.31;6164479;28;109021;-59
2023/06/26 13:35:47;;;;;;;8.40;7.70;;;;;;;25.97;50.33;94793.19;6154504;28;110189;-63
2023/06/26 13:38:55;;;;;;;7.63;6.93;;;;;;;25.97;49.84;94791.31;6164578;28;109067;-60
2023/06/26 13:41:58;;;;;;;8.47;7.60;;;;;;;25.97;50.14;94788.63;6164436;28;109124;-60
2023/06/26 13:45:04;;;;;;;8.17;7.47;;;;;;;25.95;50.22;94784.72;6164462;28;109073;-60
2023/06/26 13:48:07;;;;;;;7.57;6.87;;;;;;;25.96;49.90;94797.00;6153657;28;109455;-59
2023/06/26 13:51:11;;;;;;;7.40;6.80;;;;;;;25.95;50.10;94787.41;6164168;28;109032;-60
2023/06/26 13:54:14;;;;;;;8.10;7.40;;;;;;;25.98;49.87;94789.41;6163926;28;108984;-59
2023/06/26 13:57:19;;;;;;;8.60;7.90;;;;;;;25.99;50.09;94788.28;6156197;28;109003;-59
2023/06/26 14:00:23;;;;;;;7.70;7.10;;;;;;;25.99;50.07;94783.69;6163574;28;110000;-59
2023/06/26 14:03:28;;;;;;;7.63;6.90;;;;;;;25.98;49.98;94779.44;6163837;28;109228;-57